sensor_id;sensor_type;location;lat;lon;timestamp;P1;durP1;ratioP1;P2;durP2;ratioP2
24891;SDS011;12954;50.688;10.908;2023-04-02T00:01:23;1.00;;;0.90;;
24891;SDS011;12954;50.688;10.908;2023-04-02T00:06:48;0.70;;;0.70;;
24891;SDS011;12954;50.688;10.908;2023-04-02T00:09:30;1.13;;;0.80;;
24891;SDS011;12954;50.688;10.908;2023-04-02T00:12:13;1.30;;;1.20;;
24891;SDS011;12954;50.688;10.908;2023-04-02T00:14:46;1.23;;;1.13;;
24891;SDS011;12954;50.688;10.908;2023-04-02T00:17:17;3.50;;;1.35;;
24891;SDS011;12954;50.688;10.908;2023-04-02T00:19:49;1.20;;;1.10;;
24891;SDS011;12954;50.688;10.908;2023-04-02T00:22:24;1.33;;;1.20;;
24891;SDS011;12954;50.688;10.908;2023-04-02T00:24:55;2.03;;;1.25;;
24891;SDS011;12954;50.688;10.908;2023-04-02T00:27:23;1.70;;;1.38;;
24891;SDS011;12954;50.688;10.908;2023-04-02T00:29:54;1.40;;;1.30;;
24891;SDS011;12954;50.688;10.908;2023-04-02T00:32:24;1.88;;;1.38;;
24891;SDS011;12954;50.688;10.908;2023-04-02T00:34:57;1.10;;;1.00;;
24891;SDS011;12954;50.688;10.908;2023-04-02T00:37:26;1.30;;;1.00;;
24891;SDS011;12954;50.688;10.908;2023-04-02T00:40:06;0.95;;;0.93;;
24891;SDS011;12954;50.688;10.908;2023-04-02T00:42:42;1.63;;;1.05;;
24891;SDS011;12954;50.688;10.908;2023-04-02T00:45:16;1.20;;;1.10;;
24891;SDS011;12954;50.688;10.908;2023-04-02T00:47:50;1.30;;;1.20;;
24891;SDS011;12954;50.688;10.908;2023-04-02T00:50:21;1.50;;;1.40;;
24891;SDS011;12954;50.688;10.908;2023-04-02T00:52:55;1.25;;;1.00;;
24891;SDS011;12954;50.688;10.908;2023-04-02T00:55:26;0.90;;;0.90;;
24891;SDS011;12954;50.688;10.908;2023-04-02T00:58:02;1.10;;;1.00;;
24891;SDS011;12954;50.688;10.908;2023-04-02T01:00:33;1.30;;;1.20;;
24891;SDS011;12954;50.688;10.908;2023-04-02T01:06:01;1.38;;;1.27;;
24891;SDS011;12954;50.688;10.908;2023-04-02T01:08:43;1.30;;;1.20;;
24891;SDS011;12954;50.688;10.908;2023-04-02T01:11:26;1.42;;;1.20;;
24891;SDS011;12954;50.688;10.908;2023-04-02T01:14:06;0.98;;;0.88;;
24891;SDS011;12954;50.688;10.908;2023-04-02T01:16:45;1.98;;;0.90;;
24891;SDS011;12954;50.688;10.908;2023-04-02T01:19:28;1.25;;;1.08;;
24891;SDS011;12954;50.688;10.908;2023-04-02T01:22:25;0.90;;;0.90;;
24891;SDS011;12954;50.688;10.908;2023-04-02T01:25:01;1.00;;;0.90;;
24891;SDS011;12954;50.688;10.908;2023-04-02T01:27:32;1.30;;;1.20;;
24891;SDS011;12954;50.688;10.908;2023-04-02T01:30:10;1.02;;;0.93;;
24891;SDS011;12954;50.688;10.908;2023-04-02T01:32:40;1.05;;;0.88;;
24891;SDS011;12954;50.688;10.908;2023-04-02T01:35:10;1.20;;;1.10;;
24891;SDS011;12954;50.688;10.908;2023-04-02T01:37:40;1.40;;;1.30;;
24891;SDS011;12954;50.688;10.908;2023-04-02T01:40:20;1.70;;;1.30;;
24891;SDS011;12954;50.688;10.908;2023-04-02T01:43:02;1.42;;;1.33;;
24891;SDS011;12954;50.688;10.908;2023-04-02T01:45:42;2.78;;;1.58;;
24891;SDS011;12954;50.688;10.908;2023-04-02T01:48:12;1.35;;;1.25;;
24891;SDS011;12954;50.688;10.908;2023-04-02T01:50:43;1.63;;;1.45;;
24891;SDS011;12954;50.688;10.908;2023-04-02T01:53:15;1.67;;;1.58;;
24891;SDS011;12954;50.688;10.908;2023-04-02T01:55:46;1.52;;;1.40;;
24891;SDS011;12954;50.688;10.908;2023-04-02T01:58:16;3.38;;;1.88;;
24891;SDS011;12954;50.688;10.908;2023-04-02T02:00:54;1.67;;;1.58;;
24891;SDS011;12954;50.688;10.908;2023-04-02T02:03:27;2.03;;;1.60;;
24891;SDS011;12954;50.688;10.908;2023-04-02T02:05:55;1.33;;;1.05;;
24891;SDS011;12954;50.688;10.908;2023-04-02T02:08:31;1.50;;;1.40;;
24891;SDS011;12954;50.688;10.908;2023-04-02T02:11:01;2.15;;;1.60;;
24891;SDS011;12954;50.688;10.908;2023-04-02T02:13:30;2.63;;;1.60;;
24891;SDS011;12954;50.688;10.908;2023-04-02T02:16:00;1.70;;;1.40;;
24891;SDS011;12954;50.688;10.908;2023-04-02T02:18:30;4.03;;;1.83;;
24891;SDS011;12954;50.688;10.908;2023-04-02T02:20:59;1.85;;;1.75;;
24891;SDS011;12954;50.688;10.908;2023-04-02T02:23:34;2.55;;;2.20;;
24891;SDS011;12954;50.688;10.908;2023-04-02T02:26:03;2.05;;;1.85;;
24891;SDS011;12954;50.688;10.908;2023-04-02T02:28:34;3.20;;;2.03;;
24891;SDS011;12954;50.688;10.908;2023-04-02T02:31:11;1.80;;;1.70;;
24891;SDS011;12954;50.688;10.908;2023-04-02T02:33:45;2.20;;;2.00;;
24891;SDS011;12954;50.688;10.908;2023-04-02T02:36:19;2.25;;;2.05;;
24891;SDS011;12954;50.688;10.908;2023-04-02T02:38:54;2.13;;;2.00;;
24891;SDS011;12954;50.688;10.908;2023-04-02T02:41:27;1.98;;;1.77;;
24891;SDS011;12954;50.688;10.908;2023-04-02T02:43:59;1.67;;;1.50;;
24891;SDS011;12954;50.688;10.908;2023-04-02T02:46:33;1.58;;;1.48;;
24891;SDS011;12954;50.688;10.908;2023-04-02T02:49:04;1.85;;;1.48;;
24891;SDS011;12954;50.688;10.908;2023-04-02T02:51:39;2.88;;;1.92;;
24891;SDS011;12954;50.688;10.908;2023-04-02T02:54:11;2.08;;;1.88;;
24891;SDS011;12954;50.688;10.908;2023-04-02T02:56:41;1.30;;;1.20;;
24891;SDS011;12954;50.688;10.908;2023-04-02T03:01:45;1.77;;;1.13;;
24891;SDS011;12954;50.688;10.908;2023-04-02T03:04:18;1.40;;;1.30;;
24891;SDS011;12954;50.688;10.908;2023-04-02T03:06:49;1.42;;;1.10;;
24891;SDS011;12954;50.688;10.908;2023-04-02T03:09:21;1.08;;;1.00;;
24891;SDS011;12954;50.688;10.908;2023-04-02T03:12:00;0.98;;;0.93;;
24891;SDS011;12954;50.688;10.908;2023-04-02T03:14:34;1.45;;;1.35;;
24891;SDS011;12954;50.688;10.908;2023-04-02T03:17:09;1.20;;;1.10;;
24891;SDS011;12954;50.688;10.908;2023-04-02T03:19:44;0.50;;;0.50;;
24891;SDS011;12954;50.688;10.908;2023-04-02T03:22:17;0.70;;;0.70;;
24891;SDS011;12954;50.688;10.908;2023-04-02T03:24:54;0.70;;;0.70;;
24891;SDS011;12954;50.688;10.908;2023-04-02T03:27:27;0.55;;;0.55;;
24891;SDS011;12954;50.688;10.908;2023-04-02T03:30:03;0.50;;;0.50;;
24891;SDS011;12954;50.688;10.908;2023-04-02T03:32:42;1.48;;;0.45;;
24891;SDS011;12954;50.688;10.908;2023-04-02T03:35:15;2.27;;;0.77;;
24891;SDS011;12954;50.688;10.908;2023-04-02T03:37:49;0.52;;;0.50;;
24891;SDS011;12954;50.688;10.908;2023-04-02T03:40:23;0.95;;;0.65;;
24891;SDS011;12954;50.688;10.908;2023-04-02T03:42:57;0.70;;;0.45;;
24891;SDS011;12954;50.688;10.908;2023-04-02T03:45:32;0.70;;;0.70;;
24891;SDS011;12954;50.688;10.908;2023-04-02T03:48:08;0.70;;;0.65;;
24891;SDS011;12954;50.688;10.908;2023-04-02T03:50:41;0.52;;;0.52;;
24891;SDS011;12954;50.688;10.908;2023-04-02T03:53:14;1.65;;;0.85;;
24891;SDS011;12954;50.688;10.908;2023-04-02T03:55:43;0.70;;;0.70;;
24891;SDS011;12954;50.688;10.908;2023-04-02T03:58:13;1.27;;;0.77;;
24891;SDS011;12954;50.688;10.908;2023-04-02T04:00:46;1.10;;;0.88;;
24891;SDS011;12954;50.688;10.908;2023-04-02T04:03:20;0.98;;;0.85;;
24891;SDS011;12954;50.688;10.908;2023-04-02T04:05:54;1.83;;;1.52;;
24891;SDS011;12954;50.688;10.908;2023-04-02T04:08:26;1.10;;;1.00;;
24891;SDS011;12954;50.688;10.908;2023-04-02T04:11:06;0.93;;;0.80;;
24891;SDS011;12954;50.688;10.908;2023-04-02T04:13:39;0.80;;;0.70;;
24891;SDS011;12954;50.688;10.908;2023-04-02T04:16:13;0.80;;;0.70;;
24891;SDS011;12954;50.688;10.908;2023-04-02T04:18:48;0.50;;;0.50;;
24891;SDS011;12954;50.688;10.908;2023-04-02T04:21:29;0.52;;;0.52;;
24891;SDS011;12954;50.688;10.908;2023-04-02T04:24:03;1.10;;;0.70;;
24891;SDS011;12954;50.688;10.908;2023-04-02T04:26:35;0.60;;;0.60;;
24891;SDS011;12954;50.688;10.908;2023-04-02T04:29:13;0.60;;;0.60;;
24891;SDS011;12954;50.688;10.908;2023-04-02T04:31:52;0.60;;;0.60;;
24891;SDS011;12954;50.688;10.908;2023-04-02T04:34:25;0.50;;;0.50;;
24891;SDS011;12954;50.688;10.908;2023-04-02T04:36:57;0.63;;;0.57;;
24891;SDS011;12954;50.688;10.908;2023-04-02T04:39:28;1.10;;;0.77;;
24891;SDS011;12954;50.688;10.908;2023-04-02T04:42:06;1.48;;;1.23;;
24891;SDS011;12954;50.688;10.908;2023-04-02T04:44:45;6.85;;;5.05;;
24891;SDS011;12954;50.688;10.908;2023-04-02T04:47:20;0.90;;;0.90;;
24891;SDS011;12954;50.688;10.908;2023-04-02T04:49:55;1.95;;;1.40;;
24891;SDS011;12954;50.688;10.908;2023-04-02T04:52:27;1.02;;;1.00;;
24891;SDS011;12954;50.688;10.908;2023-04-02T04:54:59;1.42;;;1.20;;
24891;SDS011;12954;50.688;10.908;2023-04-02T04:57:29;0.90;;;0.90;;
24891;SDS011;12954;50.688;10.908;2023-04-02T05:00:02;1.00;;;0.90;;
24891;SDS011;12954;50.688;10.908;2023-04-02T05:02:39;0.80;;;0.80;;
24891;SDS011;12954;50.688;10.908;2023-04-02T05:05:19;0.90;;;0.88;;
24891;SDS011;12954;50.688;10.908;2023-04-02T05:07:52;1.20;;;1.00;;
24891;SDS011;12954;50.688;10.908;2023-04-02T05:10:27;1.10;;;1.00;;
24891;SDS011;12954;50.688;10.908;2023-04-02T05:13:02;1.10;;;1.00;;
24891;SDS011;12954;50.688;10.908;2023-04-02T05:15:34;1.15;;;1.08;;
24891;SDS011;12954;50.688;10.908;2023-04-02T05:18:11;1.08;;;0.98;;
24891;SDS011;12954;50.688;10.908;2023-04-02T05:20:49;1.40;;;1.00;;
24891;SDS011;12954;50.688;10.908;2023-04-02T05:23:24;1.13;;;1.02;;
24891;SDS011;12954;50.688;10.908;2023-04-02T05:25:57;1.17;;;1.08;;
24891;SDS011;12954;50.688;10.908;2023-04-02T05:28:31;0.77;;;0.77;;
24891;SDS011;12954;50.688;10.908;2023-04-02T05:31:06;1.27;;;1.17;;
24891;SDS011;12954;50.688;10.908;2023-04-02T05:33:41;1.35;;;1.10;;
24891;SDS011;12954;50.688;10.908;2023-04-02T05:36:19;1.27;;;1.05;;
24891;SDS011;12954;50.688;10.908;2023-04-02T05:38:50;1.10;;;0.93;;
24891;SDS011;12954;50.688;10.908;2023-04-02T05:41:21;1.00;;;0.90;;
24891;SDS011;12954;50.688;10.908;2023-04-02T05:46:27;0.98;;;0.90;;
24891;SDS011;12954;50.688;10.908;2023-04-02T05:49:03;1.30;;;1.10;;
24891;SDS011;12954;50.688;10.908;2023-04-02T05:51:40;0.85;;;0.85;;
24891;SDS011;12954;50.688;10.908;2023-04-02T05:54:15;0.98;;;0.88;;
24891;SDS011;12954;50.688;10.908;2023-04-02T05:56:50;0.80;;;0.80;;
24891;SDS011;12954;50.688;10.908;2023-04-02T06:01:55;1.13;;;1.02;;
24891;SDS011;12954;50.688;10.908;2023-04-02T06:04:30;2.33;;;1.23;;
24891;SDS011;12954;50.688;10.908;2023-04-02T06:07:07;1.52;;;1.10;;
24891;SDS011;12954;50.688;10.908;2023-04-02T06:09:41;1.50;;;1.40;;
24891;SDS011;12954;50.688;10.908;2023-04-02T06:12:15;1.45;;;1.30;;
24891;SDS011;12954;50.688;10.908;2023-04-02T06:14:49;1.05;;;0.95;;
24891;SDS011;12954;50.688;10.908;2023-04-02T06:17:18;2.10;;;1.40;;
24891;SDS011;12954;50.688;10.908;2023-04-02T06:19:47;1.08;;;0.98;;
24891;SDS011;12954;50.688;10.908;2023-04-02T06:22:23;0.80;;;0.70;;
24891;SDS011;12954;50.688;10.908;2023-04-02T06:24:59;1.00;;;1.00;;
24891;SDS011;12954;50.688;10.908;2023-04-02T06:27:32;0.80;;;0.80;;
24891;SDS011;12954;50.688;10.908;2023-04-02T06:30:03;1.20;;;1.10;;
24891;SDS011;12954;50.688;10.908;2023-04-02T06:32:40;0.75;;;0.75;;
24891;SDS011;12954;50.688;10.908;2023-04-02T06:35:10;0.93;;;0.80;;
24891;SDS011;12954;50.688;10.908;2023-04-02T06:37:41;1.67;;;1.58;;
24891;SDS011;12954;50.688;10.908;2023-04-02T06:40:20;1.88;;;1.30;;
24891;SDS011;12954;50.688;10.908;2023-04-02T06:42:58;1.40;;;1.30;;
24891;SDS011;12954;50.688;10.908;2023-04-02T06:45:33;1.27;;;1.08;;
24891;SDS011;12954;50.688;10.908;2023-04-02T06:48:07;1.30;;;1.20;;
24891;SDS011;12954;50.688;10.908;2023-04-02T06:50:43;1.20;;;1.10;;
24891;SDS011;12954;50.688;10.908;2023-04-02T06:53:18;1.30;;;1.10;;
24891;SDS011;12954;50.688;10.908;2023-04-02T06:55:51;1.70;;;0.90;;
24891;SDS011;12954;50.688;10.908;2023-04-02T06:58:25;0.70;;;0.70;;
24891;SDS011;12954;50.688;10.908;2023-04-02T07:00:53;1.10;;;0.88;;
24891;SDS011;12954;50.688;10.908;2023-04-02T07:03:23;1.60;;;0.98;;
24891;SDS011;12954;50.688;10.908;2023-04-02T07:05:54;1.10;;;0.95;;
24891;SDS011;12954;50.688;10.908;2023-04-02T07:08:25;0.88;;;0.80;;
24891;SDS011;12954;50.688;10.908;2023-04-02T07:10:53;1.30;;;0.90;;
24891;SDS011;12954;50.688;10.908;2023-04-02T07:13:23;0.60;;;0.60;;
24891;SDS011;12954;50.688;10.908;2023-04-02T07:15:52;0.80;;;0.70;;
24891;SDS011;12954;50.688;10.908;2023-04-02T07:18:22;1.10;;;1.00;;
24891;SDS011;12954;50.688;10.908;2023-04-02T07:20:54;2.00;;;1.00;;
24891;SDS011;12954;50.688;10.908;2023-04-02T07:23:22;2.08;;;1.08;;
24891;SDS011;12954;50.688;10.908;2023-04-02T07:25:53;0.90;;;0.90;;
24891;SDS011;12954;50.688;10.908;2023-04-02T07:28:22;2.22;;;1.60;;
24891;SDS011;12954;50.688;10.908;2023-04-02T07:30:51;3.28;;;1.70;;
24891;SDS011;12954;50.688;10.908;2023-04-02T07:33:20;1.48;;;1.30;;
24891;SDS011;12954;50.688;10.908;2023-04-02T07:35:51;1.15;;;1.02;;
24891;SDS011;12954;50.688;10.908;2023-04-02T07:38:21;1.92;;;1.10;;
24891;SDS011;12954;50.688;10.908;2023-04-02T07:40:50;1.50;;;0.90;;
24891;SDS011;12954;50.688;10.908;2023-04-02T07:43:19;1.60;;;1.50;;
24891;SDS011;12954;50.688;10.908;2023-04-02T07:45:48;1.90;;;1.65;;
24891;SDS011;12954;50.688;10.908;2023-04-02T07:48:17;1.80;;;1.65;;
24891;SDS011;12954;50.688;10.908;2023-04-02T07:50:46;1.70;;;1.58;;
24891;SDS011;12954;50.688;10.908;2023-04-02T07:53:22;1.75;;;1.65;;
24891;SDS011;12954;50.688;10.908;2023-04-02T07:55:55;1.58;;;1.30;;
24891;SDS011;12954;50.688;10.908;2023-04-02T07:58:26;2.13;;;1.92;;
24891;SDS011;12954;50.688;10.908;2023-04-02T08:00:55;2.38;;;2.17;;
24891;SDS011;12954;50.688;10.908;2023-04-02T08:03:24;2.35;;;2.15;;
24891;SDS011;12954;50.688;10.908;2023-04-02T08:05:54;2.45;;;2.22;;
24891;SDS011;12954;50.688;10.908;2023-04-02T08:08:24;5.30;;;3.58;;
24891;SDS011;12954;50.688;10.908;2023-04-02T08:10:52;3.92;;;3.50;;
24891;SDS011;12954;50.688;10.908;2023-04-02T08:13:21;3.55;;;3.03;;
24891;SDS011;12954;50.688;10.908;2023-04-02T08:15:51;2.65;;;2.45;;
24891;SDS011;12954;50.688;10.908;2023-04-02T08:18:20;3.17;;;2.83;;
24891;SDS011;12954;50.688;10.908;2023-04-02T08:20:49;3.67;;;2.40;;
24891;SDS011;12954;50.688;10.908;2023-04-02T08:23:18;3.00;;;2.70;;
24891;SDS011;12954;50.688;10.908;2023-04-02T08:25:47;2.63;;;2.42;;
24891;SDS011;12954;50.688;10.908;2023-04-02T08:28:16;2.13;;;1.83;;
24891;SDS011;12954;50.688;10.908;2023-04-02T08:30:44;2.60;;;2.20;;
24891;SDS011;12954;50.688;10.908;2023-04-02T08:33:16;3.60;;;2.10;;
24891;SDS011;12954;50.688;10.908;2023-04-02T08:35:45;2.17;;;1.98;;
24891;SDS011;12954;50.688;10.908;2023-04-02T08:38:15;2.10;;;1.90;;
24891;SDS011;12954;50.688;10.908;2023-04-02T08:40:46;2.75;;;2.55;;
24891;SDS011;12954;50.688;10.908;2023-04-02T08:43:24;2.92;;;2.20;;
24891;SDS011;12954;50.688;10.908;2023-04-02T08:46:06;2.53;;;2.10;;
24891;SDS011;12954;50.688;10.908;2023-04-02T08:48:43;2.40;;;2.20;;
24891;SDS011;12954;50.688;10.908;2023-04-02T08:51:18;3.97;;;1.90;;
24891;SDS011;12954;50.688;10.908;2023-04-02T08:53:50;2.00;;;1.80;;
24891;SDS011;12954;50.688;10.908;2023-04-02T08:56:24;3.65;;;2.10;;
24891;SDS011;12954;50.688;10.908;2023-04-02T08:58:58;1.90;;;1.70;;
24891;SDS011;12954;50.688;10.908;2023-04-02T09:01:33;1.80;;;1.70;;
24891;SDS011;12954;50.688;10.908;2023-04-02T09:04:13;2.97;;;2.30;;
24891;SDS011;12954;50.688;10.908;2023-04-02T09:06:44;3.20;;;2.58;;
24891;SDS011;12954;50.688;10.908;2023-04-02T09:09:15;3.67;;;3.17;;
24891;SDS011;12954;50.688;10.908;2023-04-02T09:11:47;3.30;;;3.10;;
24891;SDS011;12954;50.688;10.908;2023-04-02T09:14:20;3.25;;;2.95;;
24891;SDS011;12954;50.688;10.908;2023-04-02T09:16:57;5.07;;;3.40;;
24891;SDS011;12954;50.688;10.908;2023-04-02T09:19:32;3.30;;;2.92;;
24891;SDS011;12954;50.688;10.908;2023-04-02T09:22:05;7.60;;;3.13;;
24891;SDS011;12954;50.688;10.908;2023-04-02T09:24:35;11.85;;;3.15;;
24891;SDS011;12954;50.688;10.908;2023-04-02T09:27:09;8.25;;;4.18;;
24891;SDS011;12954;50.688;10.908;2023-04-02T09:29:45;19.55;;;5.30;;
24891;SDS011;12954;50.688;10.908;2023-04-02T09:32:20;19.55;;;5.40;;
24891;SDS011;12954;50.688;10.908;2023-04-02T09:40:40;7.15;;;4.28;;
24891;SDS011;12954;50.688;10.908;2023-04-02T09:43:14;8.80;;;5.05;;
24891;SDS011;12954;50.688;10.908;2023-04-02T09:45:44;6.57;;;4.68;;
24891;SDS011;12954;50.688;10.908;2023-04-02T09:48:23;11.20;;;4.72;;
24891;SDS011;12954;50.688;10.908;2023-04-02T09:51:09;7.78;;;5.75;;
24891;SDS011;12954;50.688;10.908;2023-04-02T09:53:40;6.05;;;4.30;;
24891;SDS011;12954;50.688;10.908;2023-04-02T09:56:11;6.53;;;4.75;;
24891;SDS011;12954;50.688;10.908;2023-04-02T09:58:41;7.72;;;3.90;;
24891;SDS011;12954;50.688;10.908;2023-04-02T10:01:27;4.90;;;4.43;;
24891;SDS011;12954;50.688;10.908;2023-04-02T10:03:58;5.63;;;4.55;;
24891;SDS011;12954;50.688;10.908;2023-04-02T10:06:29;6.72;;;4.50;;
24891;SDS011;12954;50.688;10.908;2023-04-02T10:09:05;12.00;;;4.68;;
24891;SDS011;12954;50.688;10.908;2023-04-02T10:11:47;8.48;;;5.40;;
24891;SDS011;12954;50.688;10.908;2023-04-02T10:14:18;9.50;;;6.28;;
24891;SDS011;12954;50.688;10.908;2023-04-02T10:16:50;9.43;;;7.20;;
24891;SDS011;12954;50.688;10.908;2023-04-02T10:19:22;28.33;;;9.05;;
24891;SDS011;12954;50.688;10.908;2023-04-02T10:21:59;25.98;;;9.98;;
24891;SDS011;12954;50.688;10.908;2023-04-02T10:24:32;29.15;;;8.13;;
24891;SDS011;12954;50.688;10.908;2023-04-02T10:27:03;24.48;;;8.98;;
24891;SDS011;12954;50.688;10.908;2023-04-02T10:29:51;25.95;;;9.85;;
24891;SDS011;12954;50.688;10.908;2023-04-02T10:32:29;30.27;;;9.70;;
24891;SDS011;12954;50.688;10.908;2023-04-02T10:35:07;23.15;;;9.82;;
24891;SDS011;12954;50.688;10.908;2023-04-02T10:37:45;18.35;;;7.95;;
24891;SDS011;12954;50.688;10.908;2023-04-02T10:40:23;30.58;;;12.13;;
24891;SDS011;12954;50.688;10.908;2023-04-02T10:43:02;20.38;;;8.18;;
24891;SDS011;12954;50.688;10.908;2023-04-02T10:45:50;108.90;;;14.07;;
24891;SDS011;12954;50.688;10.908;2023-04-02T10:48:24;48.70;;;9.02;;
24891;SDS011;12954;50.688;10.908;2023-04-02T10:51:00;203.68;;;16.65;;
24891;SDS011;12954;50.688;10.908;2023-04-02T10:53:36;46.60;;;8.40;;
24891;SDS011;12954;50.688;10.908;2023-04-02T10:56:13;135.05;;;13.18;;
24891;SDS011;12954;50.688;10.908;2023-04-02T10:58:44;522.15;;;28.00;;
24891;SDS011;12954;50.688;10.908;2023-04-02T11:01:23;565.08;;;37.65;;
24891;SDS011;12954;50.688;10.908;2023-04-02T11:03:57;584.95;;;39.45;;
24891;SDS011;12954;50.688;10.908;2023-04-02T11:06:29;55.65;;;8.85;;
24891;SDS011;12954;50.688;10.908;2023-04-02T11:09:02;65.03;;;11.07;;
24891;SDS011;12954;50.688;10.908;2023-04-02T11:11:33;13.85;;;7.18;;
24891;SDS011;12954;50.688;10.908;2023-04-02T11:14:09;14.10;;;8.88;;
24891;SDS011;12954;50.688;10.908;2023-04-02T11:16:41;9.82;;;6.90;;
24891;SDS011;12954;50.688;10.908;2023-04-02T11:19:21;7.55;;;5.30;;
24891;SDS011;12954;50.688;10.908;2023-04-02T11:21:52;8.55;;;6.32;;
24891;SDS011;12954;50.688;10.908;2023-04-02T11:24:34;6.35;;;3.67;;
24891;SDS011;12954;50.688;10.908;2023-04-02T11:27:06;4.80;;;4.13;;
24891;SDS011;12954;50.688;10.908;2023-04-02T11:29:42;5.15;;;3.97;;
24891;SDS011;12954;50.688;10.908;2023-04-02T11:32:13;6.45;;;3.67;;
24891;SDS011;12954;50.688;10.908;2023-04-02T11:34:57;8.15;;;4.75;;
24891;SDS011;12954;50.688;10.908;2023-04-02T11:37:33;5.55;;;4.28;;
24891;SDS011;12954;50.688;10.908;2023-04-02T11:46:34;6.13;;;5.53;;
24891;SDS011;12954;50.688;10.908;2023-04-02T11:52:22;6.57;;;5.88;;
24891;SDS011;12954;50.688;10.908;2023-04-02T11:54:54;6.03;;;5.22;;
24891;SDS011;12954;50.688;10.908;2023-04-02T11:57:28;7.95;;;5.60;;
24891;SDS011;12954;50.688;10.908;2023-04-02T12:00:12;6.50;;;5.65;;
24891;SDS011;12954;50.688;10.908;2023-04-02T12:02:54;5.82;;;5.15;;
24891;SDS011;12954;50.688;10.908;2023-04-02T12:05:39;5.70;;;5.20;;
24891;SDS011;12954;50.688;10.908;2023-04-02T12:08:22;5.97;;;4.20;;
24891;SDS011;12954;50.688;10.908;2023-04-02T12:10:56;5.80;;;4.47;;
24891;SDS011;12954;50.688;10.908;2023-04-02T12:16:24;8.73;;;5.68;;
24891;SDS011;12954;50.688;10.908;2023-04-02T12:18:58;7.35;;;4.43;;
24891;SDS011;12954;50.688;10.908;2023-04-02T12:21:27;5.20;;;4.32;;
24891;SDS011;12954;50.688;10.908;2023-04-02T12:23:57;6.35;;;4.47;;
24891;SDS011;12954;50.688;10.908;2023-04-02T12:26:27;4.68;;;4.20;;
24891;SDS011;12954;50.688;10.908;2023-04-02T12:32:00;7.93;;;3.20;;
24891;SDS011;12954;50.688;10.908;2023-04-02T12:34:29;4.78;;;3.30;;
24891;SDS011;12954;50.688;10.908;2023-04-02T12:36:59;4.47;;;3.45;;
24891;SDS011;12954;50.688;10.908;2023-04-02T12:39:30;4.93;;;3.22;;
24891;SDS011;12954;50.688;10.908;2023-04-02T12:41:59;3.63;;;2.90;;
24891;SDS011;12954;50.688;10.908;2023-04-02T12:44:28;5.72;;;3.33;;
24891;SDS011;12954;50.688;10.908;2023-04-02T12:46:59;5.30;;;3.17;;
24891;SDS011;12954;50.688;10.908;2023-04-02T12:49:33;4.43;;;3.40;;
24891;SDS011;12954;50.688;10.908;2023-04-02T12:52:03;5.28;;;3.00;;
24891;SDS011;12954;50.688;10.908;2023-04-02T12:54:34;3.63;;;3.28;;
24891;SDS011;12954;50.688;10.908;2023-04-02T12:57:30;4.72;;;3.15;;
24891;SDS011;12954;50.688;10.908;2023-04-02T13:00:25;5.03;;;3.40;;
24891;SDS011;12954;50.688;10.908;2023-04-02T13:05:33;3.90;;;3.27;;
24891;SDS011;12954;50.688;10.908;2023-04-02T13:08:05;4.65;;;3.85;;
24891;SDS011;12954;50.688;10.908;2023-04-02T13:10:34;7.57;;;5.53;;
24891;SDS011;12954;50.688;10.908;2023-04-02T13:13:04;8.23;;;3.85;;
24891;SDS011;12954;50.688;10.908;2023-04-02T13:15:33;6.10;;;3.92;;
24891;SDS011;12954;50.688;10.908;2023-04-02T13:18:05;7.50;;;4.70;;
24891;SDS011;12954;50.688;10.908;2023-04-02T13:20:53;6.50;;;4.47;;
24891;SDS011;12954;50.688;10.908;2023-04-02T13:23:24;6.90;;;4.50;;
24891;SDS011;12954;50.688;10.908;2023-04-02T13:26:00;5.50;;;4.70;;
24891;SDS011;12954;50.688;10.908;2023-04-02T13:28:32;6.47;;;4.65;;
24891;SDS011;12954;50.688;10.908;2023-04-02T13:31:00;7.10;;;4.25;;
24891;SDS011;12954;50.688;10.908;2023-04-02T13:33:30;7.93;;;5.28;;
24891;SDS011;12954;50.688;10.908;2023-04-02T13:35:59;6.57;;;5.40;;
24891;SDS011;12954;50.688;10.908;2023-04-02T13:38:27;5.78;;;4.30;;
24891;SDS011;12954;50.688;10.908;2023-04-02T13:40:55;4.97;;;4.05;;
24891;SDS011;12954;50.688;10.908;2023-04-02T13:43:24;12.15;;;7.40;;
24891;SDS011;12954;50.688;10.908;2023-04-02T13:45:54;6.55;;;4.70;;
24891;SDS011;12954;50.688;10.908;2023-04-02T13:48:26;5.13;;;4.45;;
24891;SDS011;12954;50.688;10.908;2023-04-02T13:50:56;6.93;;;4.40;;
24891;SDS011;12954;50.688;10.908;2023-04-02T13:53:26;5.15;;;4.50;;
24891;SDS011;12954;50.688;10.908;2023-04-02T13:55:58;5.75;;;4.35;;
24891;SDS011;12954;50.688;10.908;2023-04-02T13:58:27;6.97;;;4.80;;
24891;SDS011;12954;50.688;10.908;2023-04-02T14:00:55;5.55;;;3.92;;
24891;SDS011;12954;50.688;10.908;2023-04-02T14:03:25;8.52;;;4.75;;
24891;SDS011;12954;50.688;10.908;2023-04-02T14:05:56;6.53;;;5.10;;
24891;SDS011;12954;50.688;10.908;2023-04-02T14:08:32;8.10;;;3.53;;
24891;SDS011;12954;50.688;10.908;2023-04-02T14:11:12;4.85;;;3.67;;
24891;SDS011;12954;50.688;10.908;2023-04-02T14:13:55;4.75;;;3.60;;
24891;SDS011;12954;50.688;10.908;2023-04-02T14:16:49;6.45;;;4.18;;
24891;SDS011;12954;50.688;10.908;2023-04-02T14:19:27;6.35;;;4.72;;
24891;SDS011;12954;50.688;10.908;2023-04-02T14:22:09;5.78;;;3.25;;
24891;SDS011;12954;50.688;10.908;2023-04-02T14:24:47;7.50;;;3.53;;
24891;SDS011;12954;50.688;10.908;2023-04-02T14:27:27;6.88;;;3.90;;
24891;SDS011;12954;50.688;10.908;2023-04-02T14:30:00;4.68;;;3.08;;
24891;SDS011;12954;50.688;10.908;2023-04-02T14:32:35;5.28;;;2.80;;
24891;SDS011;12954;50.688;10.908;2023-04-02T14:35:12;4.53;;;2.95;;
24891;SDS011;12954;50.688;10.908;2023-04-02T14:37:54;4.72;;;3.10;;
24891;SDS011;12954;50.688;10.908;2023-04-02T14:40:31;5.32;;;3.47;;
24891;SDS011;12954;50.688;10.908;2023-04-02T14:43:06;5.43;;;3.58;;
24891;SDS011;12954;50.688;10.908;2023-04-02T14:45:42;6.50;;;3.60;;
24891;SDS011;12954;50.688;10.908;2023-04-02T14:48:29;4.95;;;3.25;;
24891;SDS011;12954;50.688;10.908;2023-04-02T14:51:10;4.15;;;3.10;;
24891;SDS011;12954;50.688;10.908;2023-04-02T14:53:46;4.47;;;2.90;;
24891;SDS011;12954;50.688;10.908;2023-04-02T14:56:19;5.80;;;3.33;;
24891;SDS011;12954;50.688;10.908;2023-04-02T14:58:52;5.55;;;2.90;;
24891;SDS011;12954;50.688;10.908;2023-04-02T15:01:38;4.80;;;3.05;;
24891;SDS011;12954;50.688;10.908;2023-04-02T15:04:10;4.60;;;2.80;;
24891;SDS011;12954;50.688;10.908;2023-04-02T15:06:44;7.40;;;4.72;;
24891;SDS011;12954;50.688;10.908;2023-04-02T15:09:19;12.43;;;7.85;;
24891;SDS011;12954;50.688;10.908;2023-04-02T15:11:55;4.95;;;3.78;;
24891;SDS011;12954;50.688;10.908;2023-04-02T15:14:29;5.32;;;2.97;;
24891;SDS011;12954;50.688;10.908;2023-04-02T15:17:01;5.50;;;2.88;;
24891;SDS011;12954;50.688;10.908;2023-04-02T15:19:30;8.88;;;3.13;;
24891;SDS011;12954;50.688;10.908;2023-04-02T15:22:01;4.10;;;2.70;;
24891;SDS011;12954;50.688;10.908;2023-04-02T15:24:45;4.82;;;2.72;;
24891;SDS011;12954;50.688;10.908;2023-04-02T15:27:29;7.45;;;3.10;;
24891;SDS011;12954;50.688;10.908;2023-04-02T15:30:19;5.28;;;2.92;;
24891;SDS011;12954;50.688;10.908;2023-04-02T15:32:50;5.45;;;3.15;;
24891;SDS011;12954;50.688;10.908;2023-04-02T15:35:27;6.72;;;2.83;;
24891;SDS011;12954;50.688;10.908;2023-04-02T15:38:04;5.38;;;3.40;;
24891;SDS011;12954;50.688;10.908;2023-04-02T15:40:53;5.47;;;2.78;;
24891;SDS011;12954;50.688;10.908;2023-04-02T15:43:27;3.28;;;2.65;;
24891;SDS011;12954;50.688;10.908;2023-04-02T15:45:59;3.58;;;2.38;;
24891;SDS011;12954;50.688;10.908;2023-04-02T15:48:49;4.25;;;2.55;;
24891;SDS011;12954;50.688;10.908;2023-04-02T15:51:32;4.35;;;2.60;;